createdAt,value
2023-01-27T00:00:02.211Z,91.06
2023-01-27T00:10:09.245Z,91.03
2023-01-27T00:20:35.260Z,91.32
2023-01-27T00:30:39.941Z,91.25
2023-01-27T00:41:05.862Z,91.50
2023-01-27T00:51:11.897Z,91.35
2023-01-27T01:01:18.073Z,91.33
2023-01-27T01:11:23.657Z,91.38
2023-01-27T01:21:29.217Z,91.35
2023-01-27T01:31:34.863Z,91.38
2023-01-27T01:41:40.526Z,91.22
2023-01-27T01:51:47.847Z,91.25
2023-01-27T02:01:54.254Z,91.11
2023-01-27T02:11:58.872Z,91.12
2023-01-27T02:22:06.004Z,91.13
2023-01-27T02:32:22.314Z,91.22
2023-01-27T02:42:28.371Z,90.90
2023-01-27T02:52:33.778Z,90.84
2023-01-27T03:02:40.130Z,90.59
2023-01-27T03:12:45.798Z,90.54
2023-01-27T03:22:51.313Z,90.42
2023-01-27T03:32:58.435Z,90.07
2023-01-27T03:43:23.033Z,90.26
2023-01-27T03:53:29.091Z,89.96
2023-01-27T04:03:53.053Z,89.89
2023-01-27T04:14:01.608Z,89.97
2023-01-27T04:24:08.083Z,90.06
2023-01-27T04:34:12.773Z,90.02
2023-01-27T04:44:20.464Z,89.75
2023-01-27T04:54:26.094Z,89.53
2023-01-27T05:04:31.664Z,89.84
2023-01-27T05:14:37.066Z,89.80
2023-01-27T05:24:42.690Z,89.92
2023-01-27T05:34:48.103Z,89.60
2023-01-27T05:44:53.487Z,89.65
2023-01-27T05:54:59.013Z,89.80
2023-01-27T06:05:05.053Z,90.03
2023-01-27T06:15:12.508Z,89.83
2023-01-27T06:25:18.356Z,90.02
2023-01-27T06:35:23.988Z,89.75
2023-01-27T06:45:29.854Z,89.90
2023-01-27T06:55:36.322Z,89.70
2023-01-27T07:05:42.499Z,89.82
2023-01-27T07:15:49.062Z,89.67
2023-01-27T07:25:54.713Z,89.74
2023-01-27T07:36:00.264Z,89.49
2023-01-27T07:46:05.734Z,89.32
2023-01-27T07:56:10.638Z,89.08
2023-01-27T08:06:16.162Z,88.91
2023-01-27T08:16:21.835Z,88.84
2023-01-27T08:26:28.087Z,88.86
2023-01-27T08:36:35.427Z,88.66
2023-01-27T08:46:41.006Z,88.38
2023-01-27T08:56:46.648Z,88.58
2023-01-27T09:06:54.360Z,88.40
2023-01-27T09:17:00.101Z,88.10
2023-01-27T09:27:05.708Z,88.14
2023-01-27T09:37:12.101Z,87.39
2023-01-27T09:47:19.773Z,87.03
2023-01-27T09:57:25.171Z,86.30
2023-01-27T10:07:35.533Z,86.45
2023-01-27T10:17:40.386Z,85.50
2023-01-27T10:27:48.369Z,85.00
2023-01-27T10:37:55.377Z,84.92
2023-01-27T10:48:17.917Z,84.45
2023-01-27T10:58:29.547Z,83.77
2023-01-27T11:08:36.643Z,82.71
2023-01-27T11:18:43.931Z,82.08
2023-01-27T11:28:48.541Z,81.60
2023-01-27T11:38:53.273Z,81.32
2023-01-27T11:48:59.838Z,81.57
2023-01-27T11:59:04.822Z,80.76
2023-01-27T12:09:10.819Z,80.34
2023-01-27T12:19:16.701Z,80.39
2023-01-27T12:29:23.123Z,80.03
2023-01-27T12:39:27.590Z,78.91
2023-01-27T12:49:32.246Z,78.83
2023-01-27T12:59:46.327Z,78.13
2023-01-27T13:09:53.747Z,77.80
2023-01-27T13:19:58.501Z,77.61
2023-01-27T13:30:03.580Z,77.36
2023-01-27T13:40:16.031Z,76.84
2023-01-27T13:50:22.397Z,77.09
2023-01-27T14:00:32.209Z,77.10
2023-01-27T14:10:41.454Z,77.51
2023-01-27T14:20:47.076Z,78.14
2023-01-27T14:30:52.743Z,78.51
2023-01-27T14:41:01.765Z,79.17
2023-01-27T14:51:07.306Z,79.55
2023-01-27T15:01:12.783Z,79.68
2023-01-27T15:11:22.081Z,79.76
2023-01-27T15:21:29.622Z,79.76
2023-01-27T15:31:35.286Z,79.98
2023-01-27T15:41:52.440Z,79.93
2023-01-27T15:52:09.403Z,79.92
2023-01-27T16:02:14.463Z,79.47
2023-01-27T16:12:33.071Z,79.81
2023-01-27T16:22:41.699Z,79.74
2023-01-27T16:32:49.893Z,79.32
2023-01-27T16:42:55.883Z,79.55
2023-01-27T16:53:02.375Z,79.23
2023-01-27T17:03:06.771Z,79.53
2023-01-27T17:13:16.346Z,80.07
2023-01-27T17:23:22.807Z,80.12
2023-01-27T17:33:28.701Z,79.74
2023-01-27T17:43:36.262Z,79.92
2023-01-27T17:53:41.000Z,80.12
2023-01-27T18:03:47.508Z,80.47
2023-01-27T18:13:52.473Z,80.53
2023-01-27T18:23:59.149Z,80.41
2023-01-27T18:34:22.454Z,80.54
2023-01-27T18:44:27.529Z,80.78
2023-01-27T18:54:33.100Z,80.94
2023-01-27T19:04:38.884Z,81.01
2023-01-27T19:14:46.709Z,81.28
2023-01-27T19:24:52.295Z,81.14
2023-01-27T19:34:57.900Z,81.58
2023-01-27T19:45:03.407Z,81.66
2023-01-27T19:55:09.974Z,81.68
2023-01-27T20:05:13.943Z,81.32
2023-01-27T20:15:19.715Z,81.87
2023-01-27T20:25:26.061Z,82.12
2023-01-27T20:35:31.993Z,82.24
2023-01-27T20:45:39.005Z,82.02
2023-01-27T20:55:44.790Z,82.30
2023-01-27T21:05:50.326Z,82.48
2023-01-27T21:15:57.050Z,82.76
2023-01-27T21:26:03.794Z,82.90
2023-01-27T21:36:10.911Z,83.05
2023-01-27T21:46:16.480Z,83.30
2023-01-27T21:56:23.970Z,83.55
2023-01-27T22:06:29.442Z,83.95
2023-01-27T22:16:34.861Z,84.07
2023-01-27T22:26:40.627Z,84.35
2023-01-27T22:36:46.237Z,84.43
2023-01-27T22:46:51.751Z,84.70
2023-01-27T22:56:58.564Z,85.01
2023-01-27T23:07:05.518Z,85.38
2023-01-27T23:17:11.306Z,85.71
2023-01-27T23:27:16.916Z,85.99
2023-01-27T23:37:24.831Z,86.13
2023-01-27T23:47:30.061Z,86.27
2023-01-27T23:57:35.591Z,86.31
